1G5 weather

Medina Municipal Airport
Medina, Ohio, United States

Public forecast

Using degrees Fahrenheit for public forecast. Weather courtesy of forecast.io.

Closest aviation weather report (METAR) to Medina Municipal Airport

Closest report is Akron Fulton International Airport, 14.6 nm (27.1 km) ESE. Retrieved 2020/06/01 23:54 UTC (41 minutes ago):

KAKR 012354Z AUTO 22006KT 10SM FEW120 21/03 A3016 RMK AO2 SLP211 T02060028 10228 20206 56012

Closest aviation forecast (TAF) to Medina Municipal Airport

Closest forecast is Cleveland Hopkins International Airport, 17.3 nm (32.0 km) NNW. Retrieved 2020-06-02 00:22 UTC (13 minutes ago):

TAF KCLE 012320Z 0200/0306 20010KT P6SM BKN100 FM021200 23011KT P6SM BKN050 FM021600 24013G20KT P6SM OVC040